sensor_id;sensor_type;location;lat;lon;timestamp;temperature;humidity
13817;DHT22;6979;52.116;5.286;2022-11-20T00:00:38;2.70;99.90
13817;DHT22;6979;52.116;5.286;2022-11-20T00:03:05;2.70;99.90
13817;DHT22;6979;52.116;5.286;2022-11-20T00:05:32;2.70;99.90
13817;DHT22;6979;52.116;5.286;2022-11-20T00:07:59;2.70;99.90
13817;DHT22;6979;52.116;5.286;2022-11-20T00:10:26;2.60;99.90
13817;DHT22;6979;52.116;5.286;2022-11-20T00:12:54;2.60;99.90
13817;DHT22;6979;52.116;5.286;2022-11-20T00:15:21;2.60;99.90
13817;DHT22;6979;52.116;5.286;2022-11-20T00:17:48;2.60;99.90
13817;DHT22;6979;52.116;5.286;2022-11-20T00:20:15;2.60;99.90
13817;DHT22;6979;52.116;5.286;2022-11-20T00:22:41;2.60;99.90
13817;DHT22;6979;52.116;5.286;2022-11-20T00:25:08;2.50;99.90
13817;DHT22;6979;52.116;5.286;2022-11-20T00:27:35;2.50;99.90
13817;DHT22;6979;52.116;5.286;2022-11-20T00:30:04;2.50;99.90
13817;DHT22;6979;52.116;5.286;2022-11-20T00:32:32;2.50;99.90
13817;DHT22;6979;52.116;5.286;2022-11-20T00:34:59;2.40;99.90
13817;DHT22;6979;52.116;5.286;2022-11-20T00:37:26;2.40;99.90
13817;DHT22;6979;52.116;5.286;2022-11-20T00:39:53;2.40;99.90
13817;DHT22;6979;52.116;5.286;2022-11-20T00:42:19;2.40;99.90
13817;DHT22;6979;52.116;5.286;2022-11-20T00:44:46;2.40;99.90
13817;DHT22;6979;52.116;5.286;2022-11-20T00:47:14;2.40;99.90
13817;DHT22;6979;52.116;5.286;2022-11-20T00:49:41;2.40;99.90
13817;DHT22;6979;52.116;5.286;2022-11-20T00:52:08;2.30;99.90
13817;DHT22;6979;52.116;5.286;2022-11-20T00:54:36;2.30;99.90
13817;DHT22;6979;52.116;5.286;2022-11-20T00:57:03;2.30;99.90
13817;DHT22;6979;52.116;5.286;2022-11-20T00:59:30;2.30;99.90
13817;DHT22;6979;52.116;5.286;2022-11-20T01:01:56;2.30;99.90
13817;DHT22;6979;52.116;5.286;2022-11-20T01:04:25;2.30;99.90
13817;DHT22;6979;52.116;5.286;2022-11-20T01:06:52;2.30;99.90
13817;DHT22;6979;52.116;5.286;2022-11-20T01:09:18;2.20;99.90
13817;DHT22;6979;52.116;5.286;2022-11-20T01:11:45;2.20;99.90
13817;DHT22;6979;52.116;5.286;2022-11-20T01:14:14;2.20;99.90
13817;DHT22;6979;52.116;5.286;2022-11-20T01:16:43;2.20;99.90
13817;DHT22;6979;52.116;5.286;2022-11-20T01:19:12;2.20;99.90
13817;DHT22;6979;52.116;5.286;2022-11-20T01:21:41;2.10;99.90
13817;DHT22;6979;52.116;5.286;2022-11-20T01:24:11;2.10;99.90
13817;DHT22;6979;52.116;5.286;2022-11-20T01:26:40;2.10;99.90
13817;DHT22;6979;52.116;5.286;2022-11-20T01:29:12;2.10;99.90
13817;DHT22;6979;52.116;5.286;2022-11-20T01:31:39;2.10;99.90
13817;DHT22;6979;52.116;5.286;2022-11-20T01:34:09;2.10;99.90
13817;DHT22;6979;52.116;5.286;2022-11-20T01:36:39;2.10;99.90
13817;DHT22;6979;52.116;5.286;2022-11-20T01:39:10;2.10;99.90
13817;DHT22;6979;52.116;5.286;2022-11-20T01:41:38;2.10;99.90
13817;DHT22;6979;52.116;5.286;2022-11-20T01:47:06;2.10;99.90
13817;DHT22;6979;52.116;5.286;2022-11-20T01:49:38;2.10;99.90
13817;DHT22;6979;52.116;5.286;2022-11-20T01:52:11;2.00;99.90
13817;DHT22;6979;52.116;5.286;2022-11-20T01:54:42;2.00;99.90
13817;DHT22;6979;52.116;5.286;2022-11-20T01:57:11;2.00;99.90
13817;DHT22;6979;52.116;5.286;2022-11-20T01:59:41;2.00;99.90
13817;DHT22;6979;52.116;5.286;2022-11-20T02:02:10;2.00;99.90
13817;DHT22;6979;52.116;5.286;2022-11-20T02:04:37;1.90;99.90
13817;DHT22;6979;52.116;5.286;2022-11-20T02:07:04;1.90;99.90
13817;DHT22;6979;52.116;5.286;2022-11-20T02:09:33;1.90;99.90
13817;DHT22;6979;52.116;5.286;2022-11-20T02:12:00;1.90;99.90
13817;DHT22;6979;52.116;5.286;2022-11-20T02:14:27;1.90;99.90
13817;DHT22;6979;52.116;5.286;2022-11-20T02:16:54;1.80;99.90
13817;DHT22;6979;52.116;5.286;2022-11-20T02:19:26;1.80;99.90
13817;DHT22;6979;52.116;5.286;2022-11-20T02:21:59;1.80;99.90
13817;DHT22;6979;52.116;5.286;2022-11-20T02:24:28;1.80;99.90
13817;DHT22;6979;52.116;5.286;2022-11-20T02:26:59;1.70;99.90
13817;DHT22;6979;52.116;5.286;2022-11-20T02:29:28;1.70;99.90
13817;DHT22;6979;52.116;5.286;2022-11-20T02:31:58;1.70;99.90
13817;DHT22;6979;52.116;5.286;2022-11-20T02:34:26;1.70;99.90
13817;DHT22;6979;52.116;5.286;2022-11-20T02:36:55;1.70;99.90
13817;DHT22;6979;52.116;5.286;2022-11-20T02:39:25;1.70;99.90
13817;DHT22;6979;52.116;5.286;2022-11-20T02:41:55;1.70;99.90
13817;DHT22;6979;52.116;5.286;2022-11-20T02:44:23;1.60;99.90
13817;DHT22;6979;52.116;5.286;2022-11-20T02:46:50;1.60;99.90
13817;DHT22;6979;52.116;5.286;2022-11-20T02:49:17;1.60;99.90
13817;DHT22;6979;52.116;5.286;2022-11-20T02:51:43;1.60;99.90
13817;DHT22;6979;52.116;5.286;2022-11-20T02:54:10;1.60;99.90
13817;DHT22;6979;52.116;5.286;2022-11-20T02:56:37;1.50;99.90
13817;DHT22;6979;52.116;5.286;2022-11-20T02:59:06;1.50;99.90
13817;DHT22;6979;52.116;5.286;2022-11-20T03:01:32;1.50;99.90
13817;DHT22;6979;52.116;5.286;2022-11-20T03:03:59;1.50;99.90
13817;DHT22;6979;52.116;5.286;2022-11-20T03:06:26;1.40;99.90
13817;DHT22;6979;52.116;5.286;2022-11-20T03:08:53;1.40;99.90
13817;DHT22;6979;52.116;5.286;2022-11-20T03:11:20;1.40;99.90
13817;DHT22;6979;52.116;5.286;2022-11-20T03:13:47;1.40;99.90
13817;DHT22;6979;52.116;5.286;2022-11-20T03:16:18;1.40;99.90
13817;DHT22;6979;52.116;5.286;2022-11-20T03:18:46;1.40;99.90
13817;DHT22;6979;52.116;5.286;2022-11-20T03:21:14;1.30;99.90
13817;DHT22;6979;52.116;5.286;2022-11-20T03:23:42;1.30;99.90
13817;DHT22;6979;52.116;5.286;2022-11-20T03:26:11;1.30;99.90
13817;DHT22;6979;52.116;5.286;2022-11-20T03:28:38;1.30;99.90
13817;DHT22;6979;52.116;5.286;2022-11-20T03:31:06;1.30;99.90
13817;DHT22;6979;52.116;5.286;2022-11-20T03:33:35;1.20;99.90
13817;DHT22;6979;52.116;5.286;2022-11-20T03:36:03;1.20;99.90
13817;DHT22;6979;52.116;5.286;2022-11-20T03:38:31;1.20;99.90
13817;DHT22;6979;52.116;5.286;2022-11-20T03:40:59;1.20;99.90
13817;DHT22;6979;52.116;5.286;2022-11-20T03:43:27;1.20;99.90
13817;DHT22;6979;52.116;5.286;2022-11-20T03:45:54;1.20;99.90
13817;DHT22;6979;52.116;5.286;2022-11-20T03:48:21;1.20;99.90
13817;DHT22;6979;52.116;5.286;2022-11-20T03:50:49;1.10;99.90
13817;DHT22;6979;52.116;5.286;2022-11-20T03:53:17;1.10;99.90
13817;DHT22;6979;52.116;5.286;2022-11-20T03:55:43;1.10;99.90
13817;DHT22;6979;52.116;5.286;2022-11-20T03:58:10;1.00;99.90
13817;DHT22;6979;52.116;5.286;2022-11-20T04:00:38;1.00;99.90
13817;DHT22;6979;52.116;5.286;2022-11-20T04:03:05;1.00;99.90
13817;DHT22;6979;52.116;5.286;2022-11-20T04:05:33;1.00;99.90
13817;DHT22;6979;52.116;5.286;2022-11-20T04:08:01;0.90;99.90
13817;DHT22;6979;52.116;5.286;2022-11-20T04:10:28;0.90;99.90
13817;DHT22;6979;52.116;5.286;2022-11-20T04:12:55;0.90;99.90
13817;DHT22;6979;52.116;5.286;2022-11-20T04:15:22;0.90;99.90
13817;DHT22;6979;52.116;5.286;2022-11-20T04:17:48;0.90;99.90
13817;DHT22;6979;52.116;5.286;2022-11-20T04:20:15;0.90;99.90
13817;DHT22;6979;52.116;5.286;2022-11-20T04:22:42;0.90;99.90
13817;DHT22;6979;52.116;5.286;2022-11-20T04:25:10;0.80;99.90
13817;DHT22;6979;52.116;5.286;2022-11-20T04:27:37;0.80;99.90
13817;DHT22;6979;52.116;5.286;2022-11-20T04:30:05;0.80;99.90
13817;DHT22;6979;52.116;5.286;2022-11-20T04:32:32;0.80;99.90
13817;DHT22;6979;52.116;5.286;2022-11-20T04:34:59;0.80;99.90
13817;DHT22;6979;52.116;5.286;2022-11-20T04:37:25;0.80;99.90
13817;DHT22;6979;52.116;5.286;2022-11-20T04:39:52;0.80;99.90
13817;DHT22;6979;52.116;5.286;2022-11-20T04:42:20;0.70;99.90
13817;DHT22;6979;52.116;5.286;2022-11-20T04:44:56;0.70;99.90
13817;DHT22;6979;52.116;5.286;2022-11-20T04:47:23;0.70;99.90
13817;DHT22;6979;52.116;5.286;2022-11-20T04:49:50;0.70;99.90
13817;DHT22;6979;52.116;5.286;2022-11-20T04:52:17;0.70;99.90
13817;DHT22;6979;52.116;5.286;2022-11-20T04:54:43;0.70;99.90
13817;DHT22;6979;52.116;5.286;2022-11-20T04:57:12;0.60;99.90
13817;DHT22;6979;52.116;5.286;2022-11-20T04:59:40;0.60;99.90
13817;DHT22;6979;52.116;5.286;2022-11-20T05:02:07;0.60;99.90
13817;DHT22;6979;52.116;5.286;2022-11-20T05:04:34;0.50;99.90
13817;DHT22;6979;52.116;5.286;2022-11-20T05:07:01;0.50;99.90
13817;DHT22;6979;52.116;5.286;2022-11-20T05:09:28;0.50;99.90
13817;DHT22;6979;52.116;5.286;2022-11-20T05:11:54;0.50;99.90
13817;DHT22;6979;52.116;5.286;2022-11-20T05:14:21;0.40;99.90
13817;DHT22;6979;52.116;5.286;2022-11-20T05:16:49;0.40;99.90
13817;DHT22;6979;52.116;5.286;2022-11-20T05:19:16;0.50;99.90
13817;DHT22;6979;52.116;5.286;2022-11-20T05:21:43;0.50;99.90
13817;DHT22;6979;52.116;5.286;2022-11-20T05:24:10;0.40;99.90
13817;DHT22;6979;52.116;5.286;2022-11-20T05:26:37;0.40;99.90
13817;DHT22;6979;52.116;5.286;2022-11-20T05:29:04;0.40;99.90
13817;DHT22;6979;52.116;5.286;2022-11-20T05:31:31;0.40;99.90
13817;DHT22;6979;52.116;5.286;2022-11-20T05:33:59;0.40;99.90
13817;DHT22;6979;52.116;5.286;2022-11-20T05:36:26;0.40;99.90
13817;DHT22;6979;52.116;5.286;2022-11-20T05:38:53;0.40;99.90
13817;DHT22;6979;52.116;5.286;2022-11-20T05:41:20;0.40;99.90
13817;DHT22;6979;52.116;5.286;2022-11-20T05:43:48;0.40;99.90
13817;DHT22;6979;52.116;5.286;2022-11-20T05:46:17;0.40;99.90
13817;DHT22;6979;52.116;5.286;2022-11-20T05:48:44;0.30;99.90
13817;DHT22;6979;52.116;5.286;2022-11-20T05:51:15;0.30;99.90
13817;DHT22;6979;52.116;5.286;2022-11-20T05:53:42;0.30;99.90
13817;DHT22;6979;52.116;5.286;2022-11-20T05:56:11;0.30;99.90
13817;DHT22;6979;52.116;5.286;2022-11-20T05:58:38;0.20;99.90
13817;DHT22;6979;52.116;5.286;2022-11-20T06:01:07;0.20;99.90
13817;DHT22;6979;52.116;5.286;2022-11-20T06:03:34;0.20;99.90
13817;DHT22;6979;52.116;5.286;2022-11-20T06:06:02;0.20;99.90
13817;DHT22;6979;52.116;5.286;2022-11-20T06:08:31;0.20;99.90
13817;DHT22;6979;52.116;5.286;2022-11-20T06:10:58;0.20;99.90
13817;DHT22;6979;52.116;5.286;2022-11-20T06:13:25;0.20;99.90
13817;DHT22;6979;52.116;5.286;2022-11-20T06:15:53;0.20;99.90
13817;DHT22;6979;52.116;5.286;2022-11-20T06:18:20;0.20;99.90
13817;DHT22;6979;52.116;5.286;2022-11-20T06:20:47;0.10;99.90
13817;DHT22;6979;52.116;5.286;2022-11-20T06:23:13;0.10;99.90
13817;DHT22;6979;52.116;5.286;2022-11-20T06:25:42;0.10;99.90
13817;DHT22;6979;52.116;5.286;2022-11-20T06:28:09;0.10;99.90
13817;DHT22;6979;52.116;5.286;2022-11-20T06:30:36;0.10;99.90
13817;DHT22;6979;52.116;5.286;2022-11-20T06:33:03;0.10;99.90
13817;DHT22;6979;52.116;5.286;2022-11-20T06:35:30;0.10;99.90
13817;DHT22;6979;52.116;5.286;2022-11-20T06:37:57;0.10;99.90
13817;DHT22;6979;52.116;5.286;2022-11-20T06:40:23;0.10;99.90
13817;DHT22;6979;52.116;5.286;2022-11-20T06:42:53;0.10;99.90
13817;DHT22;6979;52.116;5.286;2022-11-20T06:45:20;0.20;99.90
13817;DHT22;6979;52.116;5.286;2022-11-20T06:47:47;0.20;99.90
13817;DHT22;6979;52.116;5.286;2022-11-20T06:50:14;0.20;99.90
13817;DHT22;6979;52.116;5.286;2022-11-20T06:52:41;0.20;99.90
13817;DHT22;6979;52.116;5.286;2022-11-20T06:55:08;0.20;99.90
13817;DHT22;6979;52.116;5.286;2022-11-20T06:57:34;0.20;99.90
13817;DHT22;6979;52.116;5.286;2022-11-20T07:00:03;0.20;99.90
13817;DHT22;6979;52.116;5.286;2022-11-20T07:02:30;0.20;99.90
13817;DHT22;6979;52.116;5.286;2022-11-20T07:04:57;0.20;99.90
13817;DHT22;6979;52.116;5.286;2022-11-20T07:07:24;0.20;99.90
13817;DHT22;6979;52.116;5.286;2022-11-20T07:09:51;0.20;99.90
13817;DHT22;6979;52.116;5.286;2022-11-20T07:12:17;0.30;99.90
13817;DHT22;6979;52.116;5.286;2022-11-20T07:14:44;0.20;99.90
13817;DHT22;6979;52.116;5.286;2022-11-20T07:17:13;0.20;99.90
13817;DHT22;6979;52.116;5.286;2022-11-20T07:19:39;0.20;99.90
13817;DHT22;6979;52.116;5.286;2022-11-20T07:22:08;0.20;99.90
13817;DHT22;6979;52.116;5.286;2022-11-20T07:24:35;0.30;99.90
13817;DHT22;6979;52.116;5.286;2022-11-20T07:27:01;0.30;99.90
13817;DHT22;6979;52.116;5.286;2022-11-20T07:29:29;0.30;99.90
13817;DHT22;6979;52.116;5.286;2022-11-20T07:31:56;0.30;99.90
13817;DHT22;6979;52.116;5.286;2022-11-20T07:34:24;0.30;99.90
13817;DHT22;6979;52.116;5.286;2022-11-20T07:36:51;0.30;99.90
13817;DHT22;6979;52.116;5.286;2022-11-20T07:39:18;0.40;99.90
13817;DHT22;6979;52.116;5.286;2022-11-20T07:41:45;0.40;99.90
13817;DHT22;6979;52.116;5.286;2022-11-20T07:44:11;0.40;99.90
13817;DHT22;6979;52.116;5.286;2022-11-20T07:46:38;0.40;99.90
13817;DHT22;6979;52.116;5.286;2022-11-20T07:49:05;0.50;99.90
13817;DHT22;6979;52.116;5.286;2022-11-20T07:51:33;0.50;99.90
13817;DHT22;6979;52.116;5.286;2022-11-20T07:54:00;0.50;99.90
13817;DHT22;6979;52.116;5.286;2022-11-20T07:56:27;0.60;99.90
13817;DHT22;6979;52.116;5.286;2022-11-20T07:58:54;0.60;99.90
13817;DHT22;6979;52.116;5.286;2022-11-20T08:01:20;0.60;99.90
13817;DHT22;6979;52.116;5.286;2022-11-20T08:03:47;0.70;99.90
13817;DHT22;6979;52.116;5.286;2022-11-20T08:06:14;0.70;99.90
13817;DHT22;6979;52.116;5.286;2022-11-20T08:08:42;0.80;99.90
13817;DHT22;6979;52.116;5.286;2022-11-20T08:11:09;0.90;99.90
13817;DHT22;6979;52.116;5.286;2022-11-20T08:13:54;0.90;99.90
13817;DHT22;6979;52.116;5.286;2022-11-20T08:16:39;1.00;99.90
13817;DHT22;6979;52.116;5.286;2022-11-20T08:19:06;1.10;99.90
13817;DHT22;6979;52.116;5.286;2022-11-20T08:21:33;1.20;99.90
13817;DHT22;6979;52.116;5.286;2022-11-20T08:24:01;1.30;99.90
13817;DHT22;6979;52.116;5.286;2022-11-20T08:26:28;1.40;99.90
13817;DHT22;6979;52.116;5.286;2022-11-20T08:28:55;1.50;99.90
13817;DHT22;6979;52.116;5.286;2022-11-20T08:31:23;1.60;99.90
13817;DHT22;6979;52.116;5.286;2022-11-20T08:33:51;1.70;99.90
13817;DHT22;6979;52.116;5.286;2022-11-20T08:36:20;1.80;99.90
13817;DHT22;6979;52.116;5.286;2022-11-20T08:38:48;1.90;99.90
13817;DHT22;6979;52.116;5.286;2022-11-20T08:41:16;1.90;99.90
13817;DHT22;6979;52.116;5.286;2022-11-20T08:43:54;2.10;99.90
13817;DHT22;6979;52.116;5.286;2022-11-20T08:46:22;2.20;99.90
13817;DHT22;6979;52.116;5.286;2022-11-20T08:48:49;2.30;99.90
13817;DHT22;6979;52.116;5.286;2022-11-20T08:51:17;2.40;99.90
13817;DHT22;6979;52.116;5.286;2022-11-20T08:53:44;2.50;99.90
13817;DHT22;6979;52.116;5.286;2022-11-20T08:56:11;2.60;99.90
13817;DHT22;6979;52.116;5.286;2022-11-20T08:58:39;2.60;99.90
13817;DHT22;6979;52.116;5.286;2022-11-20T09:01:06;2.70;99.90
13817;DHT22;6979;52.116;5.286;2022-11-20T09:03:33;2.70;99.90
13817;DHT22;6979;52.116;5.286;2022-11-20T09:06:03;2.80;99.90
13817;DHT22;6979;52.116;5.286;2022-11-20T09:08:31;2.80;99.90
13817;DHT22;6979;52.116;5.286;2022-11-20T09:10:59;2.90;99.90
13817;DHT22;6979;52.116;5.286;2022-11-20T09:13:27;2.90;99.90
13817;DHT22;6979;52.116;5.286;2022-11-20T09:15:56;3.00;99.90
13817;DHT22;6979;52.116;5.286;2022-11-20T09:18:23;3.10;99.90
13817;DHT22;6979;52.116;5.286;2022-11-20T09:20:50;3.20;99.90
13817;DHT22;6979;52.116;5.286;2022-11-20T09:23:17;3.20;99.90
13817;DHT22;6979;52.116;5.286;2022-11-20T09:25:44;3.40;99.90
13817;DHT22;6979;52.116;5.286;2022-11-20T09:28:11;3.50;99.90
13817;DHT22;6979;52.116;5.286;2022-11-20T09:30:38;3.60;99.90
13817;DHT22;6979;52.116;5.286;2022-11-20T09:33:06;3.70;99.90
13817;DHT22;6979;52.116;5.286;2022-11-20T09:35:33;3.80;99.90
13817;DHT22;6979;52.116;5.286;2022-11-20T09:38:05;3.90;99.90
13817;DHT22;6979;52.116;5.286;2022-11-20T09:40:32;4.10;99.90
13817;DHT22;6979;52.116;5.286;2022-11-20T09:43:03;4.20;99.90
13817;DHT22;6979;52.116;5.286;2022-11-20T09:45:54;4.40;99.90
13817;DHT22;6979;52.116;5.286;2022-11-20T09:48:42;4.50;99.90
13817;DHT22;6979;52.116;5.286;2022-11-20T09:51:21;4.70;99.90
13817;DHT22;6979;52.116;5.286;2022-11-20T09:54:05;4.90;99.90
13817;DHT22;6979;52.116;5.286;2022-11-20T09:56:37;5.10;99.90
13817;DHT22;6979;52.116;5.286;2022-11-20T09:59:07;5.30;99.90
13817;DHT22;6979;52.116;5.286;2022-11-20T10:01:38;5.40;99.90
13817;DHT22;6979;52.116;5.286;2022-11-20T10:04:14;5.50;99.90
13817;DHT22;6979;52.116;5.286;2022-11-20T10:06:46;5.60;99.90
13817;DHT22;6979;52.116;5.286;2022-11-20T10:09:21;5.70;99.90
13817;DHT22;6979;52.116;5.286;2022-11-20T10:11:59;5.70;99.90
13817;DHT22;6979;52.116;5.286;2022-11-20T10:14:36;5.80;99.90
13817;DHT22;6979;52.116;5.286;2022-11-20T10:17:14;5.80;99.90
13817;DHT22;6979;52.116;5.286;2022-11-20T10:19:55;5.80;99.90
13817;DHT22;6979;52.116;5.286;2022-11-20T10:22:37;5.80;99.90
13817;DHT22;6979;52.116;5.286;2022-11-20T10:25:08;5.90;99.90
13817;DHT22;6979;52.116;5.286;2022-11-20T10:27:55;5.90;99.90
13817;DHT22;6979;52.116;5.286;2022-11-20T10:30:25;5.80;99.90
13817;DHT22;6979;52.116;5.286;2022-11-20T10:32:54;5.80;99.90
13817;DHT22;6979;52.116;5.286;2022-11-20T10:35:27;5.90;99.90
13817;DHT22;6979;52.116;5.286;2022-11-20T10:37:58;5.90;99.90
13817;DHT22;6979;52.116;5.286;2022-11-20T10:40:31;5.90;99.90
13817;DHT22;6979;52.116;5.286;2022-11-20T10:43:04;5.90;99.90
13817;DHT22;6979;52.116;5.286;2022-11-20T10:45:40;5.90;99.90
13817;DHT22;6979;52.116;5.286;2022-11-20T10:48:16;5.90;99.90
13817;DHT22;6979;52.116;5.286;2022-11-20T10:53:51;5.90;99.90
13817;DHT22;6979;52.116;5.286;2022-11-20T10:56:22;5.90;99.90
13817;DHT22;6979;52.116;5.286;2022-11-20T11:01:49;6.00;99.90
13817;DHT22;6979;52.116;5.286;2022-11-20T11:04:33;6.00;99.90
13817;DHT22;6979;52.116;5.286;2022-11-20T11:07:08;6.00;99.90
13817;DHT22;6979;52.116;5.286;2022-11-20T11:09:41;6.10;99.90
13817;DHT22;6979;52.116;5.286;2022-11-20T11:12:09;6.10;99.90
13817;DHT22;6979;52.116;5.286;2022-11-20T11:14:45;6.20;99.90
13817;DHT22;6979;52.116;5.286;2022-11-20T11:17:24;6.30;99.90
13817;DHT22;6979;52.116;5.286;2022-11-20T11:20:06;6.40;99.90
13817;DHT22;6979;52.116;5.286;2022-11-20T11:22:43;6.50;99.90
13817;DHT22;6979;52.116;5.286;2022-11-20T11:25:23;6.50;99.90
13817;DHT22;6979;52.116;5.286;2022-11-20T11:27:51;6.60;99.90
13817;DHT22;6979;52.116;5.286;2022-11-20T11:30:19;6.70;99.90
13817;DHT22;6979;52.116;5.286;2022-11-20T11:32:46;6.80;99.90
13817;DHT22;6979;52.116;5.286;2022-11-20T11:35:25;6.80;99.90
13817;DHT22;6979;52.116;5.286;2022-11-20T11:38:00;6.90;99.90
13817;DHT22;6979;52.116;5.286;2022-11-20T11:40:29;6.90;99.90
13817;DHT22;6979;52.116;5.286;2022-11-20T11:42:59;7.00;99.90
13817;DHT22;6979;52.116;5.286;2022-11-20T11:45:27;7.00;99.90
13817;DHT22;6979;52.116;5.286;2022-11-20T11:47:55;7.10;99.90
13817;DHT22;6979;52.116;5.286;2022-11-20T11:50:24;7.10;99.90
13817;DHT22;6979;52.116;5.286;2022-11-20T11:52:58;7.10;99.90
13817;DHT22;6979;52.116;5.286;2022-11-20T11:55:31;7.10;99.90
13817;DHT22;6979;52.116;5.286;2022-11-20T11:58:08;7.10;99.90
13817;DHT22;6979;52.116;5.286;2022-11-20T12:00:40;7.10;99.90
13817;DHT22;6979;52.116;5.286;2022-11-20T12:03:13;7.10;99.90
13817;DHT22;6979;52.116;5.286;2022-11-20T12:05:43;7.20;99.90
13817;DHT22;6979;52.116;5.286;2022-11-20T12:08:17;7.20;99.90
13817;DHT22;6979;52.116;5.286;2022-11-20T12:10:49;7.20;99.90
13817;DHT22;6979;52.116;5.286;2022-11-20T12:13:30;7.20;99.90
13817;DHT22;6979;52.116;5.286;2022-11-20T12:15:59;7.20;99.90
13817;DHT22;6979;52.116;5.286;2022-11-20T12:18:28;7.20;99.90
13817;DHT22;6979;52.116;5.286;2022-11-20T12:21:05;7.20;99.90
13817;DHT22;6979;52.116;5.286;2022-11-20T12:23:46;7.20;99.90
13817;DHT22;6979;52.116;5.286;2022-11-20T12:26:19;7.20;99.90
13817;DHT22;6979;52.116;5.286;2022-11-20T12:29:02;7.20;99.90
13817;DHT22;6979;52.116;5.286;2022-11-20T12:31:41;7.30;99.90
13817;DHT22;6979;52.116;5.286;2022-11-20T12:34:24;7.30;99.90
13817;DHT22;6979;52.116;5.286;2022-11-20T12:37:03;7.30;99.90
13817;DHT22;6979;52.116;5.286;2022-11-20T12:39:40;7.30;99.90
13817;DHT22;6979;52.116;5.286;2022-11-20T12:42:24;7.40;99.90
13817;DHT22;6979;52.116;5.286;2022-11-20T12:45:23;7.40;99.90
13817;DHT22;6979;52.116;5.286;2022-11-20T12:48:09;7.40;99.90
13817;DHT22;6979;52.116;5.286;2022-11-20T12:50:50;7.40;99.90
13817;DHT22;6979;52.116;5.286;2022-11-20T12:53:27;7.40;99.90
13817;DHT22;6979;52.116;5.286;2022-11-20T12:56:03;7.40;99.90
13817;DHT22;6979;52.116;5.286;2022-11-20T12:58:39;7.40;99.90
13817;DHT22;6979;52.116;5.286;2022-11-20T13:01:20;7.50;99.90
13817;DHT22;6979;52.116;5.286;2022-11-20T13:04:12;7.50;99.90
13817;DHT22;6979;52.116;5.286;2022-11-20T13:06:43;7.50;99.90
13817;DHT22;6979;52.116;5.286;2022-11-20T13:09:13;7.50;99.90
13817;DHT22;6979;52.116;5.286;2022-11-20T13:11:44;7.50;99.90
13817;DHT22;6979;52.116;5.286;2022-11-20T13:14:26;7.50;99.90
13817;DHT22;6979;52.116;5.286;2022-11-20T13:17:00;7.50;99.90
13817;DHT22;6979;52.116;5.286;2022-11-20T13:19:31;7.50;99.90
13817;DHT22;6979;52.116;5.286;2022-11-20T13:21:58;7.50;99.90
13817;DHT22;6979;52.116;5.286;2022-11-20T13:24:26;7.60;99.90
13817;DHT22;6979;52.116;5.286;2022-11-20T13:27:05;7.60;99.90
13817;DHT22;6979;52.116;5.286;2022-11-20T13:29:44;7.50;99.90
13817;DHT22;6979;52.116;5.286;2022-11-20T13:32:14;7.50;99.90
13817;DHT22;6979;52.116;5.286;2022-11-20T13:34:51;7.50;99.90
13817;DHT22;6979;52.116;5.286;2022-11-20T13:37:26;7.50;99.90
13817;DHT22;6979;52.116;5.286;2022-11-20T13:40:11;7.50;99.90
13817;DHT22;6979;52.116;5.286;2022-11-20T13:42:43;7.50;99.90
13817;DHT22;6979;52.116;5.286;2022-11-20T13:45:22;7.50;99.90
13817;DHT22;6979;52.116;5.286;2022-11-20T13:47:50;7.50;99.90
13817;DHT22;6979;52.116;5.286;2022-11-20T13:50:18;7.60;99.90
13817;DHT22;6979;52.116;5.286;2022-11-20T13:52:49;7.50;99.90
13817;DHT22;6979;52.116;5.286;2022-11-20T13:55:23;7.50;99.90
13817;DHT22;6979;52.116;5.286;2022-11-20T13:58:05;7.60;99.90
13817;DHT22;6979;52.116;5.286;2022-11-20T14:00:43;7.60;99.90
13817;DHT22;6979;52.116;5.286;2022-11-20T14:03:17;7.50;99.90
13817;DHT22;6979;52.116;5.286;2022-11-20T14:05:50;7.60;99.90
13817;DHT22;6979;52.116;5.286;2022-11-20T14:08:24;7.50;99.90
13817;DHT22;6979;52.116;5.286;2022-11-20T14:11:02;7.50;99.90
13817;DHT22;6979;52.116;5.286;2022-11-20T14:13:31;7.50;99.90
13817;DHT22;6979;52.116;5.286;2022-11-20T14:15:58;7.50;99.90
13817;DHT22;6979;52.116;5.286;2022-11-20T14:18:26;7.50;99.90
13817;DHT22;6979;52.116;5.286;2022-11-20T14:20:53;7.50;99.90
13817;DHT22;6979;52.116;5.286;2022-11-20T14:23:26;7.50;99.90
13817;DHT22;6979;52.116;5.286;2022-11-20T14:25:54;7.40;99.90
13817;DHT22;6979;52.116;5.286;2022-11-20T14:28:25;7.40;99.90
13817;DHT22;6979;52.116;5.286;2022-11-20T14:30:54;7.40;99.90
13817;DHT22;6979;52.116;5.286;2022-11-20T14:33:21;7.30;99.90
13817;DHT22;6979;52.116;5.286;2022-11-20T14:35:52;7.30;99.90
13817;DHT22;6979;52.116;5.286;2022-11-20T14:38:22;7.30;99.90
13817;DHT22;6979;52.116;5.286;2022-11-20T14:40:50;7.30;99.90
13817;DHT22;6979;52.116;5.286;2022-11-20T14:43:21;7.30;99.90
13817;DHT22;6979;52.116;5.286;2022-11-20T14:45:54;7.30;99.90
13817;DHT22;6979;52.116;5.286;2022-11-20T14:48:25;7.30;99.90
13817;DHT22;6979;52.116;5.286;2022-11-20T14:50:54;7.30;99.90
13817;DHT22;6979;52.116;5.286;2022-11-20T14:53:23;7.30;99.90
13817;DHT22;6979;52.116;5.286;2022-11-20T14:55:56;7.30;99.90
13817;DHT22;6979;52.116;5.286;2022-11-20T14:58:25;7.20;99.90
13817;DHT22;6979;52.116;5.286;2022-11-20T15:00:59;7.20;99.90
13817;DHT22;6979;52.116;5.286;2022-11-20T15:03:32;7.20;99.90
13817;DHT22;6979;52.116;5.286;2022-11-20T15:05:59;7.20;99.90
13817;DHT22;6979;52.116;5.286;2022-11-20T15:08:26;7.20;99.90
13817;DHT22;6979;52.116;5.286;2022-11-20T15:10:54;7.20;99.90
13817;DHT22;6979;52.116;5.286;2022-11-20T15:13:26;7.20;99.90
13817;DHT22;6979;52.116;5.286;2022-11-20T15:15:54;6.90;99.90
13817;DHT22;6979;52.116;5.286;2022-11-20T15:18:24;6.90;99.90
13817;DHT22;6979;52.116;5.286;2022-11-20T15:20:54;6.90;99.90
13817;DHT22;6979;52.116;5.286;2022-11-20T15:23:21;6.90;99.90
13817;DHT22;6979;52.116;5.286;2022-11-20T15:25:48;6.90;99.90
13817;DHT22;6979;52.116;5.286;2022-11-20T15:28:18;6.90;99.90
13817;DHT22;6979;52.116;5.286;2022-11-20T15:30:45;6.90;99.90
13817;DHT22;6979;52.116;5.286;2022-11-20T15:33:13;6.90;99.90
13817;DHT22;6979;52.116;5.286;2022-11-20T15:35:41;6.90;99.90
13817;DHT22;6979;52.116;5.286;2022-11-20T15:38:08;6.90;99.90
13817;DHT22;6979;52.116;5.286;2022-11-20T15:40:35;6.90;99.90
13817;DHT22;6979;52.116;5.286;2022-11-20T15:43:02;6.90;99.90
13817;DHT22;6979;52.116;5.286;2022-11-20T15:45:30;6.90;99.90
13817;DHT22;6979;52.116;5.286;2022-11-20T15:47:59;6.90;99.90
13817;DHT22;6979;52.116;5.286;2022-11-20T15:50:30;6.90;99.90
13817;DHT22;6979;52.116;5.286;2022-11-20T15:53:01;6.90;99.90
13817;DHT22;6979;52.116;5.286;2022-11-20T15:55:28;6.90;99.90
13817;DHT22;6979;52.116;5.286;2022-11-20T15:57:55;6.90;99.90
13817;DHT22;6979;52.116;5.286;2022-11-20T16:00:22;6.90;99.90
13817;DHT22;6979;52.116;5.286;2022-11-20T16:02:49;6.90;99.90
13817;DHT22;6979;52.116;5.286;2022-11-20T16:05:15;6.90;99.90
13817;DHT22;6979;52.116;5.286;2022-11-20T16:07:43;6.90;99.90
13817;DHT22;6979;52.116;5.286;2022-11-20T16:10:11;6.90;99.90
13817;DHT22;6979;52.116;5.286;2022-11-20T16:12:38;6.90;99.90
13817;DHT22;6979;52.116;5.286;2022-11-20T16:15:22;6.90;99.90
13817;DHT22;6979;52.116;5.286;2022-11-20T16:18:09;6.90;99.90
13817;DHT22;6979;52.116;5.286;2022-11-20T16:20:37;6.90;99.90
13817;DHT22;6979;52.116;5.286;2022-11-20T16:23:04;6.90;99.90
13817;DHT22;6979;52.116;5.286;2022-11-20T16:25:32;7.00;99.90
13817;DHT22;6979;52.116;5.286;2022-11-20T16:27:59;7.00;99.90